createdAt,value
2022-10-17T00:13:19.856Z,89.5
2022-10-17T00:33:19.834Z,89.8
2022-10-17T00:53:19.809Z,90.0
2022-10-17T01:13:19.813Z,89.9
2022-10-17T01:33:19.796Z,90.3
2022-10-17T01:53:19.710Z,90.1
2022-10-17T02:13:19.754Z,89.1
2022-10-17T02:33:19.803Z,90.3
2022-10-17T02:53:19.721Z,90.1
2022-10-17T03:13:19.692Z,90.2
2022-10-17T03:33:19.610Z,89.4
2022-10-17T03:53:19.653Z,89.2
2022-10-17T04:13:19.648Z,90.1
2022-10-17T04:33:19.572Z,90.1
2022-10-17T04:53:19.589Z,89.8
2022-10-17T05:13:19.704Z,89.1
2022-10-17T05:33:19.615Z,90.0
2022-10-17T05:53:19.636Z,90.5
2022-10-17T06:13:19.570Z,89.6
2022-10-17T06:33:19.503Z,90.2
2022-10-17T06:53:19.607Z,90.5
2022-10-17T07:13:19.614Z,91.3
2022-10-17T07:33:19.448Z,91.7
2022-10-17T07:53:19.550Z,91.9
2022-10-17T08:13:19.550Z,92.0
2022-10-17T08:33:19.506Z,92.0
2022-10-17T08:53:19.431Z,92.0
2022-10-17T09:13:19.363Z,91.5
2022-10-17T09:33:19.379Z,91.5
2022-10-17T09:53:19.445Z,88.0
2022-10-17T10:13:19.480Z,83.5
2022-10-17T10:33:19.482Z,83.3
2022-10-17T10:53:19.394Z,84.6
2022-10-17T11:13:19.439Z,75.8
2022-10-17T11:33:19.375Z,72.1
2022-10-17T11:53:19.376Z,72.6
2022-10-17T12:13:19.299Z,65.0
2022-10-17T12:33:19.178Z,70.9
2022-10-17T12:53:19.259Z,67.6
2022-10-17T13:13:19.053Z,60.8
2022-10-17T13:33:19.207Z,66.9
2022-10-17T13:53:19.011Z,61.4
2022-10-17T14:13:19.105Z,64.5
2022-10-17T14:33:18.989Z,64.1
2022-10-17T14:53:18.923Z,63.5
2022-10-17T15:13:18.957Z,63.6
2022-10-17T15:33:18.892Z,70.3
2022-10-17T15:53:18.819Z,76.0
2022-10-17T16:13:18.853Z,77.3
2022-10-17T16:33:18.779Z,80.3
2022-10-17T16:53:18.809Z,81.1
2022-10-17T17:13:18.739Z,84.3
2022-10-17T17:33:18.761Z,85.2
2022-10-17T17:53:18.692Z,85.5
2022-10-17T18:13:18.716Z,86.3
2022-10-17T18:33:18.635Z,86.3
2022-10-17T18:53:18.666Z,87.4
2022-10-17T19:13:18.693Z,87.8
2022-10-17T19:33:18.706Z,87.6
2022-10-17T19:53:18.636Z,88.1
2022-10-17T20:13:18.564Z,89.3
2022-10-17T20:33:18.593Z,88.1
2022-10-17T20:53:18.596Z,88.2
2022-10-17T21:13:18.516Z,88.8
2022-10-17T21:33:18.547Z,89.5
2022-10-17T21:53:18.466Z,88.7
2022-10-17T22:13:18.482Z,89.3
2022-10-17T22:33:18.508Z,88.5
2022-10-17T22:53:18.425Z,89.7
2022-10-17T23:13:18.469Z,89.9
2022-10-17T23:33:18.465Z,88.4
2022-10-17T23:53:18.389Z,89.1
